Terminal Aerodrome Forecast
Issued by NWS

Home | Current Version | Previous Version | Text Only | Print | Product List | Glossary On
Versions: 1 2 3 4 5 6 7 8 9 10 11 12 13 14
000
FTPA31 PHFO 182333
TAFHMK
TAF
PHMK 182333Z 1900/1924 04018G28KT P6SM VCSH SCT030 BKN045
      TEMPO 1900/1902 -RA BKN030
     FM190400 05014G23KT P6SM VCSH SCT030 BKN045
     FM191900 04019G28KT P6SM VCSH SCT030 BKN045=

USA.gov is the U.S. government's official web portal to all federal, state and local government web resources and services.